EA1BCU
43.32.91N 005.55.30W
IN73AN aprs.fi
zuletzt gehoert:
2022-11-28T18:29:16Z
zuerst gehoert:
2020-02-10T15:16:57Z

APRS IN73AN, 2 Stunde(n), EA1BCU [21:48:56, 0s].
EA1AHA 43.32.74N 005.54.35WIN73BN 1.159km 72°ENE20:45:28ZWind 000°/000kn, Böen bis 000kn, Temp 10.56c, Regen 0.0mm, letzte 24h 0.0mm, seit 0h 0.0mm, Baro 1020.9h, Hum: 65%(3EA1AHA-13)
MMDVM MMDVM HS 433.5000/433.5000 CC1(2EA1AHA)
EA1DZL 43.33.56N 005.55.78WIN73AN 2.044km 337°NNW20:48:13ZMMDVM MMDVM HS Hat 438.8000/438.8000 CC1(3EA1DZL-1)
ED1ZAY 43.29.47N 005.56.54WIN73AL 5.972km 198°SSW20:44:53ZRD625 438.3000/430.7000 CC1
LEGM 43.26.15N 005.49.84WIN73CK 13.840km 149°SSE20:30:03ZHelipuerto de La Morgal (123.500MHz): LEAS 011930Z 13003KT 080V160 9999 FEW030 09/05 Q1019 NOSIG=
LEMR 43.25.83N 005.49.60WIN73CK 14.524km 149°SSE20:30:04ZAerodromo de la Morgal (123.500MHz): LEAS 011930Z 13003KT 080V160 9999 FEW030 09/05 Q1019 NOSIG=
EA1IPU 43.26.21N 005.46.62WIN73CK 16.426km 135°SE20:46:52ZMMDVM MMDVM HS Hat 439.8000/439.8000 CC1(3EA1IPU-1)
EB1TK 43.32.22N 005.42.32WIN73DM 17.283km 92°E20:45:16ZWind 106°/010kn, Böen bis 015kn, Temp 11.67c, Regen 0.0mm, letzte 24h 0.0mm, seit 0h 0.0mm, Baro 1022.3h, Hum: 71%(3EB1TK-13)
EA1ABW 43.24.77N 005.47.77WIN73CJ 17.495km 145°SE20:46:30ZMMDVM MMDVM HS Hat 439.8250/439.8250 CC1(3EA1ABW-2)
ED1ZAU 43.23.04N 005.52.75WIN73BJ 17.912km 170°S20:44:49ZRD625 438.5000/430.9000 CC1
LEEL 43.32.98N 005.41.71WIN73DN 18.095km 87°E20:30:03ZHelipuerto de El Musel: LEAS 011930Z 13003KT 080V160 9999 FEW030 09/05 Q1019 NOSIG=
EA1FFA 43.31.53N 005.40.64WIN73DM 19.621km 95°E20:47:11ZMMDVM MMDVM HS Hat 438.8000/438.8000 CC1(3EA1FFA-1)
LEHU 43.22.63N 005.49.57WIN73CJ 19.858km 158°SSE20:30:03ZHelipuerto del HUCA: LEAS 011930Z 13003KT 080V160 9999 FEW030 09/05 Q1019 NOSIG=
EA1IEJ 43.31.83N 005.40.22WIN73DM 20.126km 94°E20:47:01ZMMDVM DMO 222.3400/222.3400 CC1(3EA1IEJ-11)
EA1DZR 43.31.47N 005.40.00WIN73DM 20.476km 96°E20:46:51ZMMDVM DV ADER 434.3500/434.3500 CC1(3EA1DZR-4)
MMDVM DVMega 431.1000/431.1000 CC1(2EA1DZR-1)
MMDVM MMDVM HS Hat 432.2000/432.2000 CC2(2EA1DZR-2)
EA1JBU 43.21.85N 005.51.13WIN73BI 20.551km 165°SSE20:32:03ZEA1JBU(3EA1JBU-1)
33D00 43.21.63N 005.51.13WIN73BI 20.948km 165°SSE20:01:43Z33-D-00 Protección Civil REMER / Delegación del Gobierno en Asturias
ED1ZAE 43.27.99N 005.40.54WIN73DL 21.398km 113°ESE20:39:43ZWIDE3-3 ESAS3-3 IN73DL WWW.EA1URG.ORG(3ED1ZAE-3)
ED1ZAS 43.27.52N 005.40.17WIN73DL 22.200km 115°ESE20:44:48ZRD985 438.2250/430.6250 CC1
EA4ACU 43.29.56N 005.38.92WIN73EL 22.521km 104°ESE20:47:42ZMMDVM MMDVM HS Hat 432.7000/432.7000 CC1(3EA4ACU-1)
EA1L 43.20.37N 005.51.13WIN73BI 23.192km 166°SSE20:45:09ZWind 073°/001kn, Böen bis 002kn, Temp 6.11c, Regen 0.0mm, letzte 24h 0.0mm, seit 0h 0.0mm, Baro 1017.5h, Hum: 84%(3EA1L-13)
EA1HWX 43.19.28N 005.50.98WIN73BH 25.223km 167°SSE20:47:14ZDMO - UHF 439.7250/431.0000 CC11(3EA1HWX-2)
MMDVM DMO 222.3400/222.3400 CC1(2EA1HWX-10)
EB1GEM 43.30.00N 005.36.07WIN73EM 26.103km 100°E20:42:08ZWX3in1Plus2.0 U=13.3V,T=??.?C/??.?F(3EB1GEM-3)
EC1KV 43.34.01N 006.16.01WIN63UN 28.103km 276°W20:45:35Z VOLT.=13.7 V - TEMP.=??.? C(3EC1KV-1)
EA1HJA 43.28.10N 005.30.45WIN73FL 34.242km 104°ESE20:41:34Z IN73FL WX3IN1+ 2.0 - V=12.1V,TX TEMP=42.9C
IN73FL WX3IN1+ 2.0 - V=13.3V,TX TEMP=21.8C(2EA1HJA-2)
EA1IYK 43.15.18N 005.46.10WIN73CG 34.418km 159°SSE20:36:49Zhttps://aprsdroid.org/(3EA1IYK-10)
EA1JW 43.31.35N 005.28.83WIN73GM 35.467km 93°E20:46:43ZMMDVM MMDVM HS Hat 436.5000/436.5000 CC1(3EA1JW-3)
EA1IMW 43.14.36N 005.46.93WIN73CF 35.482km 162°SSE20:46:53ZGRUPO RADIO GALENA (GRG) 430.4500/430.4500 CC1(3EA1IMW-1)
EA1JAY 43.29.33N 005.26.78WIN73GL 38.622km 99°E20:45:03Z434.525MHz Nodo TETRA DMO(3EA1JAY-4)
EA1JAY(2EA1JAY-2)
EA1JBL 43.12.28N 005.47.42WIN73CE 38.958km 164°SSE20:45:32ZMMDVM DVMega 435.3000/435.3000 CC1
EB1DGC 43.12.60N 005.45.59WIN73CF 39.147km 161°SSE20:45:21ZMMDVM MMDVM HS Hat 433.4500/433.4500 CC1
EA1FHR 43.28.72N 005.26.41WIN73GL 39.294km 100°E20:45:19ZMMDVM MMDVM HS Hat 439.1500/439.1500 CC1
EA1HWD 43.28.96N 005.26.30WIN73GL 39.374km 100°E20:45:34ZMMDVM MMDVM HS Hat 434.2500/434.2500 CC1
EA1HWA 43.12.00N 005.47.40WIN73CE 39.487km 165°SSE20:45:44ZMMDVM MMDVM HS Hat 433.4500/433.4500 CC1
EA1RCG 43.09.45N 005.49.78WIN73CD 43.390km 170°S20:46:46ZGRUPO RADIO GALENA (GRG) 430.4500/430.4500 CC1(3EA1RCG-3)
LETN 43.20.05N 006.22.69WIN63TI 43.671km 238°WSW20:30:03ZAerodromo de La Curiscada (Tineo): LEAS 011930Z 13003KT 080V160 9999 FEW030 09/05 Q1019 NOSIG=

aprs.pl 5.0.011w DL3EL © 2006-2021 [7992731]